KAL581 WSSS-RKPC
Flight info
| Callsign | KAL581 |
|---|---|
| Flight time | N/A |
| Altitude | 31000 |
| Route | VMR9B VMR/N0509F320 M771 DUDIS/K0943F320 M771 DOSUT/N0510F320 M771 DULOP/N0506F330 Q1 CARSO DCT ENVAR M750 DADON L1 SALMI Y743 BOLUT B576 SOSDO SOSDO2P |
| Aircraft | B77W/H-SDE1E2E3FGHIJ2J3J4J5M1RWXY/LB1D1 |
Departure
| Time | N/A |
|---|---|
| Airport | Singapore Changi Airport (WSSS) |
Arrival
| Time | 2025-09-09 09:33 |
|---|---|
| Airport | Jeju International Airport (RKPC) |
| Time | Latitude | Longitude | Altitude | Speed | Heading |
|---|---|---|---|---|---|
| 2025-09-09 08:38 | 30.52298 | 125.41125 | 34881 ft | 502 kts | 19° |
| 2025-09-09 08:39 | 30.65482 | 125.46583 | 34883 ft | 503 kts | 19° |
| 2025-09-09 08:41 | 30.91820 | 125.57532 | 34885 ft | 503 kts | 19° |
| 2025-09-09 08:43 | 31.18194 | 125.68561 | 34884 ft | 504 kts | 18° |
| 2025-09-09 08:45 | 31.44653 | 125.79692 | 34882 ft | 507 kts | 18° |
| 2025-09-09 08:47 | 31.71247 | 125.90909 | 34882 ft | 508 kts | 18° |
| 2025-09-09 08:49 | 31.97896 | 126.02154 | 34881 ft | 510 kts | 18° |
| 2025-09-09 08:51 | 32.21625 | 126.12205 | 34884 ft | 512 kts | 18° |
| 2025-09-09 09:09 | 32.31677 | 126.16476 | 34880 ft | 513 kts | 18° |
| 2025-09-09 09:11 | 32.59143 | 126.28205 | 29605 ft | 524 kts | 18° |
| 2025-09-09 09:13 | 32.85410 | 126.39543 | 24751 ft | 487 kts | 18° |
| 2025-09-09 09:13 | 32.91755 | 126.42291 | 23593 ft | 482 kts | 17° |
| 2025-09-09 09:14 | 32.97993 | 126.44997 | 22336 ft | 477 kts | 17° |
| 2025-09-09 09:14 | 33.04177 | 126.47671 | 21189 ft | 469 kts | 17° |
| 2025-09-09 09:14 | 33.07235 | 126.48980 | 20643 ft | 465 kts | 17° |
| 2025-09-09 09:15 | 33.13278 | 126.51566 | 19534 ft | 458 kts | 17° |
| 2025-09-09 09:16 | 33.25150 | 126.56669 | 17224 ft | 447 kts | 17° |
| 2025-09-09 09:16 | 33.28064 | 126.57924 | 16670 ft | 443 kts | 17° |
| 2025-09-09 09:17 | 33.33791 | 126.60395 | 15588 ft | 436 kts | 17° |
| 2025-09-09 09:17 | 33.39550 | 126.61187 | 14516 ft | 411 kts | 346° |
| 2025-09-09 09:18 | 33.44690 | 126.58733 | 13415 ft | 391 kts | 327° |
| 2025-09-09 09:18 | 33.49467 | 126.55714 | 12417 ft | 384 kts | 328° |
| 2025-09-09 09:19 | 33.54160 | 126.52815 | 11410 ft | 379 kts | 329° |
| 2025-09-09 09:19 | 33.56478 | 126.51395 | 11231 ft | 367 kts | 329° |
| 2025-09-09 09:19 | 33.60902 | 126.48684 | 10885 ft | 346 kts | 328° |
| 2025-09-09 09:20 | 33.67096 | 126.44879 | 10357 ft | 320 kts | 328° |
| 2025-09-09 09:21 | 33.70696 | 126.42164 | 10020 ft | 289 kts | 303° |
| 2025-09-09 09:21 | 33.72095 | 126.37949 | 9581 ft | 267 kts | 277° |
| 2025-09-09 09:22 | 33.72644 | 126.33622 | 9130 ft | 256 kts | 276° |
| 2025-09-09 09:22 | 33.73173 | 126.29471 | 8641 ft | 246 kts | 276° |
| 2025-09-09 09:23 | 33.73333 | 126.25525 | 8147 ft | 231 kts | 248° |
| 2025-09-09 09:23 | 33.72488 | 126.23909 | 7958 ft | 232 kts | 225° |
| 2025-09-09 09:24 | 33.67856 | 126.22327 | 7247 ft | 245 kts | 184° |
| 2025-09-09 09:24 | 33.64473 | 126.22313 | 7037 ft | 238 kts | 184° |
| 2025-09-09 09:25 | 33.61060 | 126.22284 | 6286 ft | 250 kts | 184° |
| 2025-09-09 09:25 | 33.57624 | 126.22250 | 5739 ft | 244 kts | 183° |
| 2025-09-09 09:26 | 33.54276 | 126.22210 | 5233 ft | 236 kts | 183° |
| 2025-09-09 09:26 | 33.51031 | 126.22168 | 4798 ft | 230 kts | 183° |
| 2025-09-09 09:26 | 33.49449 | 126.22147 | 4567 ft | 225 kts | 183° |
| 2025-09-09 09:27 | 33.46416 | 126.22277 | 4082 ft | 212 kts | 160° |
| 2025-09-09 09:27 | 33.44388 | 126.24849 | 3719 ft | 225 kts | 121° |
| 2025-09-09 09:28 | 33.42320 | 126.29686 | 3028 ft | 210 kts | 105° |
| 2025-09-09 09:29 | 33.43022 | 126.33030 | 2649 ft | 220 kts | 66° |
| 2025-09-09 09:29 | 33.44469 | 126.36114 | 2096 ft | 198 kts | 59° |
| 2025-09-09 09:30 | 33.45802 | 126.38696 | 1619 ft | 164 kts | 60° |
| 2025-09-09 09:30 | 33.46380 | 126.39823 | 1422 ft | 158 kts | 59° |
| 2025-09-09 09:31 | 33.48000 | 126.42980 | 861 ft | 147 kts | 62° |
| 2025-09-09 09:31 | 33.48538 | 126.44028 | 656 ft | 148 kts | 59° |
| 2025-09-09 09:32 | 33.50127 | 126.47106 | 110 ft | 143 kts | 60° |
| 2025-09-09 09:32 | 33.50957 | 126.48725 | 99 ft | 69 kts | 58° |
| 2025-09-09 09:33 | 33.51187 | 126.49174 | 93 ft | 20 kts | 58° |
| 2025-09-09 09:33 | 33.51185 | 126.49343 | 95 ft | 10 kts | 129° |
| 2025-09-09 09:33 | 33.51141 | 126.49411 | 96 ft | 10 kts | 125° |
| 2025-09-09 09:34 | 33.51059 | 126.49551 | 97 ft | 9 kts | 126° |
| 2025-09-09 09:35 | 33.50961 | 126.49461 | 101 ft | 7 kts | 237° |
| 2025-09-09 09:35 | 33.50910 | 126.49381 | 97 ft | 4 kts | 202° |
| 2025-09-09 09:35 | 33.50879 | 126.49377 | 98 ft | 4 kts | 186° |
| 2025-09-09 09:36 | 33.50792 | 126.49371 | 98 ft | 0 kts | 183° |